Time;durP1;ratioP1;P1;durP2;ratioP2;P2;SDS_P1;SDS_P2;PMS_P1;PMS_P2;Temp;Humidity;BMP_temperature;BMP_pressure;BME280_temperature;BME280_humidity;BME280_pressure;Samples;Min_cycle;Max_cycle;Signal;HPM_P1;HPM_P2
2022/01/07 00:02:36;;;;;;;60.88;14.20;;;;;;;-1.25;68.72;100172.34;10467529;28;20052;-66
2022/01/07 00:07:39;;;;;;;50.85;13.77;;;;;;;-1.27;69.11;100163.81;10467755;28;20135;-65
2022/01/07 00:12:41;;;;;;;27.50;13.10;;;;;;;-1.15;68.99;100172.22;10449594;28;20044;-66
2022/01/07 00:17:44;;;;;;;110.90;15.57;;;;;;;-1.08;68.79;100172.22;10467314;28;20181;-66
2022/01/07 00:22:47;;;;;;;55.30;15.15;;;;;;;-1.16;69.14;100164.56;10468399;28;20048;-65
2022/01/07 00:27:50;;;;;;;36.70;14.55;;;;;;;-1.02;68.92;100159.31;10467327;28;20058;-66
2022/01/07 00:32:52;;;;;;;33.00;15.10;;;;;;;-0.93;68.66;100157.50;10474528;28;20118;-65
2022/01/07 00:37:54;;;;;;;47.42;16.30;;;;;;;-0.89;68.48;100151.47;10475620;28;20139;-66
2022/01/07 00:42:56;;;;;;;30.83;14.93;;;;;;;-0.93;68.62;100142.09;10475936;28;20142;-65
2022/01/07 00:47:58;;;;;;;22.05;12.18;;;;;;;-0.79;68.40;100139.38;10474838;28;20048;-65
2022/01/07 00:53:00;;;;;;;19.33;10.90;;;;;;;-0.74;68.29;100138.47;10474932;28;20152;-65
2022/01/07 00:58:02;;;;;;;25.13;13.15;;;;;;;-0.73;68.19;100129.03;10474353;28;20063;-65
2022/01/07 01:03:04;;;;;;;19.63;12.32;;;;;;;-0.81;68.08;100116.31;10475059;28;20478;-65
2022/01/07 01:08:06;;;;;;;18.60;10.90;;;;;;;-0.86;68.52;100114.66;10474436;28;20053;-65
2022/01/07 01:13:09;;;;;;;21.70;11.07;;;;;;;-0.81;68.23;100108.59;10474323;28;20057;-65
2022/01/07 01:18:11;;;;;;;18.17;10.38;;;;;;;-0.93;68.47;100115.56;10474533;28;20052;-65
2022/01/07 01:23:12;;;;;;;20.85;9.95;;;;;;;-0.75;68.40;100100.81;10473932;28;20152;-65
2022/01/07 01:28:14;;;;;;;17.67;10.07;;;;;;;-0.69;68.50;100092.19;10474087;28;20067;-65
2022/01/07 01:33:18;;;;;;;20.40;10.68;;;;;;;-0.60;68.10;100095.53;10474122;28;20268;-65
2022/01/07 01:38:19;;;;;;;21.25;10.77;;;;;;;-0.57;68.20;100085.19;10472699;28;20151;-66
2022/01/07 01:43:21;;;;;;;25.13;12.55;;;;;;;-0.53;68.08;100074.00;10472827;28;20131;-65
2022/01/07 01:48:23;;;;;;;18.70;11.32;;;;;;;-0.56;67.80;100080.91;10473032;28;20048;-65
2022/01/07 01:53:25;;;;;;;22.45;12.05;;;;;;;-0.76;68.44;100073.44;10473317;28;20056;-65
2022/01/07 01:58:27;;;;;;;23.52;12.82;;;;;;;-0.81;68.21;100070.09;10439047;28;20056;-65
2022/01/07 02:03:29;;;;;;;21.58;11.85;;;;;;;-0.73;68.31;100070.84;10472848;28;20632;-65
2022/01/07 02:08:31;;;;;;;20.08;11.65;;;;;;;-0.63;68.14;100059.59;10472365;28;20133;-65
2022/01/07 02:13:33;;;;;;;29.45;13.63;;;;;;;-0.59;68.15;100062.97;10454597;28;20135;-65
2022/01/07 02:18:36;;;;;;;26.27;13.00;;;;;;;-0.50;68.05;100045.72;10471922;28;20528;-67
2022/01/07 02:23:37;;;;;;;22.77;12.65;;;;;;;-0.48;67.67;100033.72;10472228;28;20045;-65
2022/01/07 02:28:41;;;;;;;25.35;12.60;;;;;;;-0.43;67.82;100031.91;10472286;28;20062;-65
2022/01/07 02:33:42;;;;;;;31.38;14.82;;;;;;;-0.48;67.65;100038.84;10471182;28;20880;-65
2022/01/07 02:38:45;;;;;;;21.45;12.65;;;;;;;-0.56;68.14;100016.69;10454074;28;20052;-65
2022/01/07 02:43:46;;;;;;;26.95;13.82;;;;;;;-0.50;68.03;100002.06;10470633;28;20530;-65
2022/01/07 02:48:48;;;;;;;31.83;14.23;;;;;;;-0.44;67.85;99998.53;10471251;28;20059;-65
2022/01/07 02:53:50;;;;;;;27.05;13.50;;;;;;;-0.34;67.93;99995.81;10468822;28;20071;-65
2022/01/07 02:58:51;;;;;;;27.48;14.13;;;;;;;-0.42;68.02;99995.09;10469980;28;20056;-65
2022/01/07 03:03:53;;;;;;;31.90;14.90;;;;;;;-0.44;67.85;99984.00;10475873;28;20047;-65
2022/01/07 03:08:55;;;;;;;30.38;15.18;;;;;;;-0.46;67.70;99980.59;10478116;28;20059;-65
2022/01/07 03:13:57;;;;;;;28.40;14.63;;;;;;;-0.50;67.93;99972.94;10477429;28;20093;-65
2022/01/07 03:18:59;;;;;;;31.23;14.80;;;;;;;-0.56;68.17;99963.63;10477577;28;20055;-65
2022/01/07 03:24:00;;;;;;;37.22;15.57;;;;;;;-0.53;68.19;99953.28;10459802;28;20049;-65
2022/01/07 03:29:02;;;;;;;32.45;16.08;;;;;;;-0.46;68.09;99946.34;10458729;28;20052;-65
2022/01/07 03:34:04;;;;;;;29.05;15.13;;;;;;;-0.42;68.16;99943.72;10476276;28;20132;-65
2022/01/07 03:39:07;;;;;;;32.47;15.80;;;;;;;-0.27;67.89;99942.63;10477550;28;20067;-65
2022/01/07 03:44:09;;;;;;;27.25;13.75;;;;;;;-0.19;67.80;99929.66;10476562;28;20056;-65
2022/01/07 03:49:11;;;;;;;28.52;14.73;;;;;;;-0.10;67.62;99916.63;10458484;28;20139;-65
2022/01/07 03:54:13;;;;;;;29.23;14.73;;;;;;;-0.05;67.66;99917.41;10476124;28;20050;-65
2022/01/07 03:59:15;;;;;;;27.48;14.43;;;;;;;-0.19;67.63;99914.22;10475307;28;20067;-65
2022/01/07 04:04:16;;;;;;;36.00;16.50;;;;;;;-0.38;68.09;99913.66;10471903;28;20050;-65
2022/01/07 04:09:18;;;;;;;33.45;15.10;;;;;;;-0.35;68.46;99903.31;10469551;28;20135;-65
2022/01/07 04:14:20;;;;;;;29.58;14.50;;;;;;;-0.21;68.41;99919.41;10468207;28;20544;-65
2022/01/07 04:19:22;;;;;;;33.45;15.13;;;;;;;-0.16;68.18;99899.59;10449887;28;20544;-65
2022/01/07 04:24:24;;;;;;;32.53;14.73;;;;;;;-0.18;68.29;99883.34;10468008;28;20063;-65
2022/01/07 04:29:26;;;;;;;32.58;16.38;;;;;;;-0.14;67.94;99873.84;10450831;28;20078;-65
2022/01/07 04:34:28;;;;;;;27.75;14.82;;;;;;;-0.21;68.31;99877.44;10467961;28;20492;-65
2022/01/07 04:39:30;;;;;;;34.40;15.35;;;;;;;-0.29;68.42;99885.25;10450406;28;20071;-65
2022/01/07 04:44:31;;;;;;;31.90;15.15;;;;;;;-0.37;68.80;99877.66;10468113;28;20045;-65
2022/01/07 04:49:34;;;;;;;27.60;14.05;;;;;;;-0.18;68.70;99883.34;10450454;28;20148;-65
2022/01/07 04:54:36;;;;;;;28.70;15.45;;;;;;;-0.00;68.55;99877.03;10467976;28;20530;-65
2022/01/07 04:59:38;;;;;;;26.80;14.27;;;;;;;0.03;68.17;99882.13;10467328;28;20056;-65
2022/01/07 05:04:40;;;;;;;26.52;14.48;;;;;;;0.08;68.38;99880.31;10466902;28;20068;-65
2022/01/07 05:09:43;;;;;;;28.80;14.73;;;;;;;0.18;68.10;99866.44;10467229;28;20052;-65
2022/01/07 05:14:45;;;;;;;33.10;14.80;;;;;;;0.22;68.19;99868.91;10468180;28;20054;-65
2022/01/07 05:19:46;;;;;;;26.30;13.38;;;;;;;0.29;68.28;99867.91;10473683;28;20067;-65
2022/01/07 05:24:48;;;;;;;28.13;12.52;;;;;;;0.23;68.34;99869.75;10475188;28;20062;-65
2022/01/07 05:29:50;;;;;;;25.77;12.20;;;;;;;0.35;68.26;99869.50;10475288;28;20521;-65
2022/01/07 05:34:52;;;;;;;23.02;11.38;;;;;;;0.47;68.21;99879.56;10457416;28;20257;-65
2022/01/07 05:39:55;;;;;;;24.92;9.45;;;;;;;0.68;68.08;99867.97;10473422;28;20064;-65
2022/01/07 05:44:57;;;;;;;16.65;8.07;;;;;;;0.89;67.82;99852.91;10474648;28;20481;-65
2022/01/07 05:49:59;;;;;;;14.85;6.95;;;;;;;0.97;67.60;99837.31;10457643;28;20045;-65
2022/01/07 05:55:01;;;;;;;18.30;7.40;;;;;;;0.92;67.98;99823.69;10473827;28;20052;-65
2022/01/07 06:00:06;;;;;;;28.42;10.98;;;;;;;0.88;68.10;99815.19;10474091;28;20144;-65
2022/01/07 06:05:08;;;;;;;16.88;8.50;;;;;;;0.89;68.22;99806.56;10473318;28;20175;-65
2022/01/07 06:10:09;;;;;;;14.30;6.82;;;;;;;1.02;67.97;99802.00;10473824;28;20060;-65
2022/01/07 06:15:11;;;;;;;17.27;6.97;;;;;;;1.09;67.72;99788.97;10456043;28;20062;-65
2022/01/07 06:20:13;;;;;;;16.83;6.82;;;;;;;1.14;67.74;99784.53;10473215;28;20064;-65
2022/01/07 06:25:15;;;;;;;17.90;7.90;;;;;;;1.21;67.73;99786.09;10472222;28;20061;-65
2022/01/07 06:30:17;;;;;;;16.48;8.13;;;;;;;1.17;67.92;99786.19;10472849;28;20055;-65
2022/01/07 06:35:19;;;;;;;15.07;7.63;;;;;;;1.27;67.62;99782.50;10472524;28;20486;-65
2022/01/07 06:40:21;;;;;;;15.65;7.70;;;;;;;1.29;67.57;99776.44;10472930;28;20607;-65
2022/01/07 06:45:22;;;;;;;16.15;7.70;;;;;;;1.33;67.54;99782.38;10472024;28;20131;-65
2022/01/07 06:50:24;;;;;;;19.05;8.68;;;;;;;1.34;67.37;99778.88;10471764;28;20074;-65
2022/01/07 06:55:26;;;;;;;17.73;8.35;;;;;;;1.34;67.53;99779.75;10471984;28;20063;-66
2022/01/07 07:00:28;;;;;;;16.65;8.10;;;;;;;1.40;67.46;99776.16;10471803;28;20071;-65
2022/01/07 07:05:30;;;;;;;14.23;6.75;;;;;;;1.34;66.84;99768.59;10470659;28;20140;-65
2022/01/07 07:10:32;;;;;;;12.00;6.20;;;;;;;1.36;67.01;99767.66;10471556;28;20793;-65
2022/01/07 07:15:33;;;;;;;17.98;7.72;;;;;;;1.38;67.25;99765.91;10471636;28;20056;-65
2022/01/07 07:20:35;;;;;;;20.67;7.72;;;;;;;1.29;67.46;99753.25;10453419;28;20556;-65
2022/01/07 07:25:37;;;;;;;17.67;7.70;;;;;;;1.16;67.86;99772.47;10470612;28;20047;-65
2022/01/07 07:30:41;;;;;;;17.48;7.32;;;;;;;1.25;67.54;99769.69;10469417;28;20393;-65
2022/01/07 07:40:47;;;;;;;15.00;7.47;;;;;;;1.21;67.59;99773.22;10468621;28;20066;-65
2022/01/07 07:45:49;;;;;;;16.30;7.00;;;;;;;1.41;67.53;99766.72;10470311;28;20048;-65
2022/01/07 07:50:50;;;;;;;16.30;7.30;;;;;;;1.44;67.52;99762.34;10469849;28;20060;-64
2022/01/07 07:55:53;;;;;;;15.13;7.15;;;;;;;1.42;67.29;99766.66;10468610;28;20485;-64
2022/01/07 08:00:56;;;;;;;20.30;7.28;;;;;;;1.46;67.26;99765.72;10468772;28;20059;-65
2022/01/07 08:05:57;;;;;;;18.30;7.82;;;;;;;1.54;67.24;99770.66;10451391;28;20074;-64
2022/01/07 08:11:06;;;;;;;18.05;8.70;;;;;;;1.49;67.51;99772.50;10469648;28;20063;-64
2022/01/07 08:16:09;;;;;;;19.73;9.55;;;;;;;1.53;67.47;99771.53;10468968;28;20076;-64
2022/01/07 08:21:11;;;;;;;22.85;9.50;;;;;;;1.51;67.62;99763.84;10468634;28;20411;-65
2022/01/07 08:26:15;;;;;;;18.02;8.55;;;;;;;1.54;67.58;99762.94;10468176;28;20048;-64
2022/01/07 08:36:21;;;;;;;18.58;8.50;;;;;;;1.68;67.47;99747.97;10467535;28;20052;-64
2022/01/07 08:41:26;;;;;;;20.50;8.25;;;;;;;1.84;67.19;99736.34;10467470;28;20078;-64
2022/01/07 08:46:29;;;;;;;21.30;7.97;;;;;;;1.88;67.01;99741.38;10467202;28;20052;-65
2022/01/07 08:51:31;;;;;;;20.20;8.55;;;;;;;1.75;67.35;99740.00;10467958;28;20135;-64
2022/01/07 08:56:34;;;;;;;13.02;6.57;;;;;;;1.81;67.28;99736.41;10474767;28;20060;-64
2022/01/07 09:01:36;;;;;;;17.33;7.15;;;;;;;1.97;66.95;99727.38;10474593;28;20056;-64
2022/01/07 09:06:38;;;;;;;14.50;6.00;;;;;;;2.13;66.79;99723.47;10475726;28;20053;-64
2022/01/07 09:11:39;;;;;;;13.38;5.82;;;;;;;2.16;66.59;99720.78;10458906;28;20173;-65
2022/01/07 09:16:41;;;;;;;8.25;4.25;;;;;;;2.20;66.33;99715.50;10475912;28;20052;-64
2022/01/07 09:21:43;;;;;;;15.32;4.65;;;;;;;2.24;66.30;99718.84;10475278;28;20119;-62
2022/01/07 09:26:45;;;;;;;10.07;4.50;;;;;;;2.41;65.96;99720.91;10473403;28;20135;-62
2022/01/07 09:31:47;;;;;;;7.47;3.63;;;;;;;2.25;65.93;99711.94;10471845;28;20241;-62
2022/01/07 09:36:49;;;;;;;7.15;3.80;;;;;;;2.44;65.72;99719.09;10464141;28;20500;-62
2022/01/07 09:41:51;;;;;;;9.00;4.32;;;;;;;2.49;65.71;99711.22;10472258;28;20408;-62
2022/01/07 09:46:53;;;;;;;11.35;4.40;;;;;;;2.59;65.60;99700.56;10472167;28;20052;-63
2022/01/07 09:51:54;;;;;;;11.38;3.60;;;;;;;2.66;65.41;99696.06;10462002;28;20044;-62
2022/01/07 09:56:56;;;;;;;7.55;3.90;;;;;;;2.75;65.30;99696.59;10474575;28;20063;-62
2022/01/07 10:02:07;;;;;;;9.63;3.50;;;;;;;2.67;65.16;99680.50;10459895;28;20447;-62
2022/01/07 10:07:20;;;;;;;9.75;3.45;;;;;;;2.53;65.37;99687.00;10468960;28;20599;-62
2022/01/07 10:12:21;;;;;;;6.85;3.15;;;;;;;2.39;65.75;99692.59;10473177;28;20060;-62
2022/01/07 10:17:23;;;;;;;6.25;3.08;;;;;;;2.61;65.50;99685.00;10455184;28;20052;-63
2022/01/07 10:22:25;;;;;;;6.43;3.17;;;;;;;2.79;65.09;99684.44;10471646;28;20654;-62
2022/01/07 10:27:34;;;;;;;6.88;3.05;;;;;;;3.18;64.01;99677.09;10473124;28;20053;-61
2022/01/07 10:32:37;;;;;;;5.78;2.83;;;;;;;3.29;63.76;99677.59;10472415;28;20601;-62
2022/01/07 10:37:52;;;;;;;7.07;2.70;;;;;;;3.69;63.77;99670.13;10472139;28;20063;-63
2022/01/07 10:43:17;;;;;;;4.80;2.70;;;;;;;3.43;63.45;99665.03;10471268;28;20768;-63
2022/01/07 10:48:22;;;;;;;8.05;2.70;;;;;;;3.36;63.69;99658.38;10458834;28;20156;-63
2022/01/07 10:53:27;;;;;;;6.55;2.92;;;;;;;3.53;63.35;99650.88;10471649;28;20506;-63
2022/01/07 10:58:40;;;;;;;4.65;2.40;;;;;;;3.84;63.08;99646.34;10453996;28;20123;-63
2022/01/07 11:03:41;;;;;;;4.47;2.40;;;;;;;3.96;62.64;99640.69;10471349;28;20061;-62
2022/01/07 11:08:43;;;;;;;3.92;2.38;;;;;;;4.44;61.89;99631.03;10469970;28;20098;-62
2022/01/07 11:13:45;;;;;;;4.45;2.58;;;;;;;4.35;61.55;99633.97;10470217;28;20058;-62
2022/01/07 11:18:49;;;;;;;5.28;2.33;;;;;;;4.26;62.18;99624.00;10453217;28;20053;-62
2022/01/07 11:23:51;;;;;;;4.40;2.05;;;;;;;4.27;62.12;99610.13;10470237;28;20114;-63
2022/01/07 11:29:01;;;;;;;4.00;1.98;;;;;;;4.18;62.09;99605.34;10470115;28;20561;-63
2022/01/07 11:34:18;;;;;;;5.05;2.15;;;;;;;4.15;61.68;99604.63;10470277;28;20091;-62
2022/01/07 11:39:21;;;;;;;6.85;3.72;;;;;;;4.02;62.18;99593.91;10467909;28;20057;-62
2022/01/07 11:44:28;;;;;;;5.60;2.60;;;;;;;3.92;62.02;99576.19;10469383;28;20582;-62
2022/01/07 11:49:35;;;;;;;6.88;2.40;;;;;;;4.04;62.18;99586.91;10469059;28;20497;-62
2022/01/07 11:54:38;;;;;;;5.15;2.00;;;;;;;4.30;61.79;99589.31;10469224;28;20060;-62
2022/01/07 11:59:48;;;;;;;3.30;1.90;;;;;;;4.31;61.12;99570.28;10468475;28;20578;-63
2022/01/07 12:04:51;;;;;;;3.60;2.28;;;;;;;4.31;61.63;99569.47;10469008;28;20053;-63
2022/01/07 12:10:10;;;;;;;3.80;2.00;;;;;;;4.31;60.86;99570.28;10468640;28;20060;-62
2022/01/07 12:15:12;;;;;;;4.75;2.00;;;;;;;4.28;61.23;99567.84;10469036;28;20052;-63
2022/01/07 12:20:35;;;;;;;4.10;2.13;;;;;;;4.07;60.88;99567.84;10468480;28;20163;-63
2022/01/07 12:25:37;;;;;;;2.72;1.73;;;;;;;3.92;61.75;99563.25;10468370;28;20512;-63
2022/01/07 12:30:41;;;;;;;3.63;1.92;;;;;;;3.73;62.08;99569.09;10468469;28;20058;-63
2022/01/07 12:35:43;;;;;;;2.55;1.55;;;;;;;3.57;62.30;99577.47;10467981;28;20566;-63
2022/01/07 12:40:53;;;;;;;3.50;1.80;;;;;;;3.80;62.20;99583.47;10468223;28;20096;-62
2022/01/07 12:46:01;;;;;;;2.97;1.60;;;;;;;3.81;62.43;99579.16;10468187;28;20085;-63
2022/01/07 12:51:05;;;;;;;3.05;1.73;;;;;;;3.77;62.36;99572.41;10467870;28;20049;-63
2022/01/07 12:56:30;;;;;;;3.60;1.60;;;;;;;3.64;62.19;99556.50;10468174;28;20056;-63
2022/01/07 13:01:32;;;;;;;2.92;1.60;;;;;;;3.64;62.63;99573.78;10450224;28;20057;-63
2022/01/07 13:06:42;;;;;;;3.22;1.55;;;;;;;3.57;62.53;99569.72;10467416;28;20052;-63
2022/01/07 13:11:53;;;;;;;4.38;1.73;;;;;;;3.48;62.49;99559.72;10467755;28;20062;-63
2022/01/07 13:16:57;;;;;;;3.22;1.60;;;;;;;3.64;62.50;99529.84;10466874;28;20493;-63
2022/01/07 13:21:59;;;;;;;3.67;1.50;;;;;;;3.46;62.95;99562.38;10466835;28;20471;-63
2022/01/07 13:27:05;;;;;;;4.55;2.22;;;;;;;3.41;63.17;99577.22;10467292;28;20059;-63
2022/01/07 13:32:09;;;;;;;4.05;2.00;;;;;;;3.55;62.80;99568.94;10449459;28;20413;-63
2022/01/07 13:37:13;;;;;;;3.40;1.73;;;;;;;3.66;62.65;99566.81;10467402;28;20751;-63
2022/01/07 13:42:23;;;;;;;3.55;1.50;;;;;;;3.78;62.37;99558.59;10473573;28;20060;-63
2022/01/07 13:47:33;;;;;;;2.42;1.40;;;;;;;3.80;61.89;99543.84;10473749;28;20492;-62
2022/01/07 13:52:36;;;;;;;3.03;1.77;;;;;;;3.68;62.50;99552.09;10474132;28;20060;-63
2022/01/07 13:57:38;;;;;;;27.33;21.83;;;;;;;3.60;62.79;99547.19;10473710;28;20060;-63
2022/01/07 14:02:46;;;;;;;5.18;1.90;;;;;;;3.63;62.71;99554.84;10473051;28;20516;-62
2022/01/07 14:07:50;;;;;;;4.72;2.50;;;;;;;3.65;62.89;99540.09;10455727;28;20079;-63
2022/01/07 14:12:59;;;;;;;5.95;2.45;;;;;;;3.69;62.59;99548.59;10472881;28;20742;-63
2022/01/07 14:18:13;;;;;;;3.88;1.83;;;;;;;3.64;62.47;99538.41;10473077;28;20076;-63
2022/01/07 14:23:26;;;;;;;5.75;2.50;;;;;;;3.62;62.63;99547.16;10473198;28;20056;-63
2022/01/07 14:28:28;;;;;;;5.43;2.22;;;;;;;3.59;63.21;99549.84;10472666;28;20545;-63
2022/01/07 14:33:31;;;;;;;6.10;2.35;;;;;;;3.55;63.59;99543.09;10472067;28;20059;-63
2022/01/07 14:38:33;;;;;;;5.07;2.30;;;;;;;3.61;63.80;99545.44;10472237;28;20048;-63
2022/01/07 14:43:34;;;;;;;7.47;2.80;;;;;;;3.58;64.02;99546.38;10472399;28;20131;-63
2022/01/07 14:48:36;;;;;;;5.78;2.40;;;;;;;3.77;63.69;99546.53;10470763;28;20056;-63
2022/01/07 14:53:38;;;;;;;9.95;5.13;;;;;;;3.82;63.66;99549.81;10471716;28;20094;-63
2022/01/07 14:58:40;;;;;;;6.82;2.60;;;;;;;3.66;63.79;99548.72;10471457;28;20059;-63
2022/01/07 15:03:41;;;;;;;6.13;2.53;;;;;;;3.64;63.79;99550.50;10470836;28;20059;-63
2022/01/07 15:08:43;;;;;;;6.63;2.20;;;;;;;3.61;63.91;99550.63;10453074;28;20513;-63
2022/01/07 15:13:45;;;;;;;4.60;2.78;;;;;;;3.79;63.57;99555.09;10470780;28;20049;-63
2022/01/07 15:18:47;;;;;;;4.90;2.42;;;;;;;3.81;63.69;99558.47;10451945;28;20053;-64
2022/01/07 15:23:48;;;;;;;6.22;2.75;;;;;;;3.93;63.36;99552.00;10470383;28;20099;-63
2022/01/07 15:28:50;;;;;;;6.55;2.80;;;;;;;4.03;63.39;99554.16;10469885;28;20485;-63
2022/01/07 15:33:52;;;;;;;6.32;2.53;;;;;;;4.04;63.24;99550.69;10469778;28;20157;-63
2022/01/07 15:38:55;;;;;;;4.72;2.40;;;;;;;4.02;63.42;99533.53;10470044;28;20060;-63
2022/01/07 15:43:57;;;;;;;8.15;2.88;;;;;;;4.01;63.28;99547.34;10468848;28;20060;-63
2022/01/07 15:48:59;;;;;;;5.85;2.95;;;;;;;4.07;63.29;99536.81;10469329;28;20159;-64
2022/01/07 15:54:00;;;;;;;5.22;2.20;;;;;;;3.90;63.24;99545.22;10468899;28;20094;-63
2022/01/07 15:59:03;;;;;;;6.93;2.47;;;;;;;3.93;63.21;99537.31;10468008;28;20062;-64
2022/01/07 16:04:05;;;;;;;4.63;2.20;;;;;;;3.89;63.50;99538.34;10468811;28;20053;-63
2022/01/07 16:09:06;;;;;;;3.90;1.88;;;;;;;3.88;63.24;99546.16;10469063;28;20053;-64
2022/01/07 16:14:08;;;;;;;3.95;2.10;;;;;;;3.92;63.19;99538.25;10468125;28;20052;-64
2022/01/07 16:19:10;;;;;;;3.58;1.80;;;;;;;3.91;63.09;99527.94;10468612;28;20411;-64
2022/01/07 16:24:11;;;;;;;4.32;2.15;;;;;;;3.96;63.23;99523.44;10468344;28;20048;-64
2022/01/07 16:29:13;;;;;;;4.90;2.25;;;;;;;4.02;63.03;99521.44;10468635;28;20492;-63
2022/01/07 16:34:15;;;;;;;4.60;2.10;;;;;;;3.99;63.26;99513.78;10465765;28;20055;-63
2022/01/07 16:39:17;;;;;;;6.25;3.40;;;;;;;4.08;63.06;99512.59;10464129;28;20056;-63
2022/01/07 16:44:19;;;;;;;4.38;2.47;;;;;;;3.93;63.56;99503.69;10467042;28;20048;-64
2022/01/07 16:49:20;;;;;;;4.47;2.38;;;;;;;3.89;64.06;99509.88;10467092;28;20135;-64
2022/01/07 16:54:42;;;;;;;5.55;2.28;;;;;;;3.94;64.10;99501.94;10467464;28;20131;-63
2022/01/07 16:59:44;;;;;;;5.65;2.60;;;;;;;3.96;64.10;99500.16;10466156;28;20462;-63
2022/01/07 17:04:45;;;;;;;3.85;1.90;;;;;;;3.77;64.20;99503.44;10466793;28;20055;-63
2022/01/07 17:09:50;;;;;;;3.10;1.90;;;;;;;3.84;64.20;99510.06;10466838;28;20052;-64
2022/01/07 17:14:52;;;;;;;4.57;2.30;;;;;;;3.90;63.99;99506.41;10470760;28;20144;-63
2022/01/07 17:19:54;;;;;;;5.22;2.20;;;;;;;3.88;64.09;99509.97;10474328;28;20052;-63
2022/01/07 17:24:56;;;;;;;3.67;1.95;;;;;;;3.88;64.11;99495.28;10473910;28;20060;-63
2022/01/07 17:29:58;;;;;;;3.60;1.88;;;;;;;3.78;63.99;99488.75;10456885;28;20812;-63
2022/01/07 17:35:00;;;;;;;4.78;1.90;;;;;;;3.71;64.26;99487.31;10472100;28;20063;-63
2022/01/07 17:40:04;;;;;;;6.63;3.00;;;;;;;3.71;64.18;99488.16;10473529;28;20903;-63
2022/01/07 17:45:06;;;;;;;3.58;1.95;;;;;;;3.59;64.33;99493.78;10472783;28;20892;-63
2022/01/07 17:50:10;;;;;;;6.70;3.80;;;;;;;3.65;64.24;99496.16;10471167;28;20049;-64
2022/01/07 17:55:11;;;;;;;5.20;2.75;;;;;;;3.65;63.97;99495.28;10470763;28;20055;-63
2022/01/07 18:00:14;;;;;;;4.18;2.08;;;;;;;3.69;64.14;99512.38;10472271;28;20060;-63
2022/01/07 18:05:15;;;;;;;4.38;2.13;;;;;;;3.75;64.01;99500.06;10470512;28;20080;-63
2022/01/07 18:10:17;;;;;;;6.57;2.30;;;;;;;3.84;63.79;99484.19;10471578;28;20163;-63
2022/01/07 18:15:19;;;;;;;3.03;1.60;;;;;;;3.68;64.05;99492.59;10471459;28;20503;-63
2022/01/07 18:20:21;;;;;;;3.53;2.10;;;;;;;3.69;64.17;99499.44;10472364;28;20056;-63
2022/01/07 18:25:23;;;;;;;5.68;2.45;;;;;;;3.65;64.10;99496.16;10471545;28;20118;-64
2022/01/07 18:30:44;;;;;;;3.78;2.05;;;;;;;3.54;64.18;99494.84;10470851;28;20044;-63
2022/01/07 18:35:46;;;;;;;4.13;2.20;;;;;;;3.65;64.08;99487.53;10471458;28;20053;-63
2022/01/07 18:40:48;;;;;;;4.93;1.90;;;;;;;3.63;64.13;99486.75;10471162;28;20056;-63
2022/01/07 18:45:56;;;;;;;3.20;1.77;;;;;;;3.46;64.34;99499.47;10470976;28;20049;-63
2022/01/07 18:50:58;;;;;;;3.10;1.90;;;;;;;3.60;64.16;99500.63;10471240;28;20056;-63
2022/01/07 18:56:00;;;;;;;4.07;2.45;;;;;;;3.74;63.94;99487.19;10452810;28;20700;-64
2022/01/07 19:01:02;;;;;;;4.18;2.20;;;;;;;3.77;63.96;99481.88;10470677;28;20143;-64
2022/01/07 19:06:11;;;;;;;4.20;1.85;;;;;;;3.68;63.88;99488.25;10469422;28;20088;-63
2022/01/07 19:11:13;;;;;;;35.38;11.90;;;;;;;3.57;64.08;99471.47;10469893;28;20558;-63
2022/01/07 19:16:15;;;;;;;4.53;2.42;;;;;;;3.48;64.25;99471.81;10452272;28;20048;-63
2022/01/07 19:21:17;;;;;;;4.93;2.85;;;;;;;3.55;64.17;99483.63;10469273;28;20060;-64
2022/01/07 19:26:21;;;;;;;3.15;1.65;;;;;;;3.54;64.23;99485.34;10470163;28;20056;-64
2022/01/07 19:31:23;;;;;;;3.20;1.83;;;;;;;3.59;64.07;99485.19;10469434;28;20088;-63
2022/01/07 19:36:25;;;;;;;2.90;1.50;;;;;;;3.69;63.83;99489.09;10468988;28;20052;-64
2022/01/07 19:41:26;;;;;;;2.22;1.48;;;;;;;3.64;63.98;99486.69;10468995;28;20064;-63
2022/01/07 19:46:28;;;;;;;2.55;1.50;;;;;;;3.57;63.86;99469.75;10451016;28;20411;-63
2022/01/07 19:51:30;;;;;;;3.35;1.95;;;;;;;3.54;64.06;99472.44;10465600;28;20056;-63
2022/01/07 19:56:32;;;;;;;5.00;1.90;;;;;;;3.47;64.03;99470.16;10467024;28;20497;-63
2022/01/07 20:01:33;;;;;;;2.38;1.60;;;;;;;3.37;64.46;99481.75;10468162;28;20064;-63
2022/01/07 20:06:36;;;;;;;3.55;1.70;;;;;;;3.39;64.34;99474.78;10468247;28;20140;-63
2022/01/07 20:11:37;;;;;;;3.00;1.75;;;;;;;3.34;64.39;99481.84;10467900;28;20131;-63
2022/01/07 20:16:39;;;;;;;5.15;1.70;;;;;;;3.42;64.41;99461.72;10468355;28;20052;-63
2022/01/07 20:21:41;;;;;;;3.67;1.77;;;;;;;3.40;64.24;99466.09;10467193;28;20057;-63
2022/01/07 20:26:44;;;;;;;3.10;1.60;;;;;;;3.38;64.45;99468.75;10467938;28;20140;-63
2022/01/07 20:31:46;;;;;;;4.82;2.17;;;;;;;3.50;64.32;99454.50;10467478;28;20136;-63
2022/01/07 20:36:48;;;;;;;4.38;2.00;;;;;;;3.52;64.24;99447.53;10467646;28;20052;-64
2022/01/07 20:41:50;;;;;;;4.30;1.77;;;;;;;3.57;63.96;99466.31;10467317;28;20060;-64
2022/01/07 20:46:51;;;;;;;3.03;1.75;;;;;;;3.61;64.15;99460.13;10469370;28;21152;-63
2022/01/07 20:51:53;;;;;;;2.47;1.67;;;;;;;3.60;64.03;99448.09;10476012;28;20052;-63
2022/01/07 20:56:55;;;;;;;4.60;1.92;;;;;;;3.55;64.04;99452.59;10475716;28;20462;-64
2022/01/07 21:01:57;;;;;;;3.72;1.90;;;;;;;3.56;64.14;99438.75;10474783;28;20056;-63
2022/01/07 21:06:59;;;;;;;3.78;1.80;;;;;;;3.40;64.41;99432.50;10474544;28;20063;-64
2022/01/07 21:12:01;;;;;;;4.50;2.70;;;;;;;3.42;64.49;99434.13;10474914;28;20048;-63
2022/01/07 21:17:02;;;;;;;6.88;4.05;;;;;;;3.34;64.56;99428.41;10474843;28;20056;-63
2022/01/07 21:22:06;;;;;;;5.32;2.90;;;;;;;3.41;64.32;99434.19;10474209;28;20110;-63
2022/01/07 21:27:08;;;;;;;4.20;2.03;;;;;;;3.41;64.54;99434.19;10474754;28;20140;-63
2022/01/07 21:32:09;;;;;;;4.20;2.60;;;;;;;3.47;64.57;99426.22;10474314;28;20048;-63
2022/01/07 21:37:11;;;;;;;3.65;2.15;;;;;;;3.51;64.32;99417.44;10456390;28;20056;-63
2022/01/07 21:42:13;;;;;;;3.38;1.83;;;;;;;3.58;64.29;99411.09;10473428;28;20147;-63
2022/01/07 21:47:14;;;;;;;4.97;2.92;;;;;;;3.63;64.24;99399.69;10473685;28;20124;-64
2022/01/07 21:52:16;;;;;;;5.85;1.80;;;;;;;3.61;64.27;99398.06;10473559;28;20056;-63
2022/01/07 21:57:19;;;;;;;3.47;1.70;;;;;;;3.58;64.37;99390.41;10473074;28;20056;-63
2022/01/07 22:02:21;;;;;;;3.75;1.75;;;;;;;3.58;64.30;99378.34;10473112;28;20056;-63
2022/01/07 22:07:23;;;;;;;3.63;1.85;;;;;;;3.56;64.29;99379.28;10473950;28;20087;-63
2022/01/07 22:12:25;;;;;;;4.55;2.20;;;;;;;3.60;64.31;99373.13;10473578;28;20508;-64
2022/01/07 22:17:27;;;;;;;5.95;2.00;;;;;;;3.61;64.47;99370.47;10472511;28;20582;-64
2022/01/07 22:22:28;;;;;;;4.63;1.90;;;;;;;3.66;64.48;99383.22;10472935;28;20056;-64
2022/01/07 22:27:30;;;;;;;7.38;2.10;;;;;;;3.72;64.37;99382.97;10454180;28;20420;-64
2022/01/07 22:32:33;;;;;;;5.15;1.85;;;;;;;3.84;64.43;99383.31;10472877;28;20143;-64
2022/01/07 22:37:34;;;;;;;5.13;2.42;;;;;;;3.65;64.76;99377.19;10472718;28;20394;-64
2022/01/07 22:42:36;;;;;;;5.15;2.20;;;;;;;3.43;65.84;99385.88;10471683;28;20060;-64
2022/01/07 22:47:40;;;;;;;3.75;1.80;;;;;;;3.36;65.66;99377.50;10453471;28;20485;-69
2022/01/07 22:52:42;;;;;;;10.70;2.08;;;;;;;3.24;66.06;99371.97;10471925;28;20066;-70
2022/01/07 22:57:44;;;;;;;6.50;2.03;;;;;;;3.24;66.11;99375.41;10470825;28;20052;-69
2022/01/07 23:02:45;;;;;;;6.35;2.05;;;;;;;2.93;65.64;99364.56;10470561;28;20114;-69
2022/01/07 23:07:48;;;;;;;8.48;1.95;;;;;;;2.63;65.46;99366.53;10468297;28;20492;-70
2022/01/07 23:12:50;;;;;;;5.40;1.70;;;;;;;2.37;65.62;99366.66;10468963;28;20411;-69
2022/01/07 23:18:13;;;;;;;9.23;2.05;;;;;;;2.18;65.71;99360.44;10471089;28;20167;-69
2022/01/07 23:23:15;;;;;;;8.65;2.50;;;;;;;2.08;65.90;99354.78;10469367;28;20056;-69
2022/01/07 23:28:16;;;;;;;4.57;2.05;;;;;;;1.94;66.39;99341.50;10435618;28;20056;-69
2022/01/07 23:33:18;;;;;;;5.28;2.45;;;;;;;2.00;66.00;99332.72;10469673;28;20063;-70
2022/01/07 23:38:21;;;;;;;3.65;2.00;;;;;;;1.73;66.32;99326.75;10465981;28;20049;-70